sensor_id;sensor_type;location;lat;lon;timestamp;temperature;humidity
56322;DHT22;42227;6.376;-10.782;2024-02-21T00:00:41;28.70;99.90
56322;DHT22;42227;6.376;-10.782;2024-02-21T00:03:10;28.70;1.00
56322;DHT22;42227;6.376;-10.782;2024-02-21T00:05:38;28.70;1.00
56322;DHT22;42227;6.376;-10.782;2024-02-21T00:08:07;28.70;1.00
56322;DHT22;42227;6.376;-10.782;2024-02-21T00:10:35;28.80;1.00
56322;DHT22;42227;6.376;-10.782;2024-02-21T00:13:04;28.80;99.90
56322;DHT22;42227;6.376;-10.782;2024-02-21T00:15:32;28.80;1.00
56322;DHT22;42227;6.376;-10.782;2024-02-21T00:18:00;28.80;99.90
56322;DHT22;42227;6.376;-10.782;2024-02-21T00:20:29;28.80;1.00
56322;DHT22;42227;6.376;-10.782;2024-02-21T00:22:57;28.60;1.00
56322;DHT22;42227;6.376;-10.782;2024-02-21T00:25:26;28.60;1.00
56322;DHT22;42227;6.376;-10.782;2024-02-21T00:27:54;28.60;1.00
56322;DHT22;42227;6.376;-10.782;2024-02-21T00:30:22;28.70;1.00
56322;DHT22;42227;6.376;-10.782;2024-02-21T00:32:51;28.70;1.00
56322;DHT22;42227;6.376;-10.782;2024-02-21T00:35:19;28.80;1.00
56322;DHT22;42227;6.376;-10.782;2024-02-21T00:37:48;28.80;1.00
56322;DHT22;42227;6.376;-10.782;2024-02-21T00:40:16;28.80;1.00
56322;DHT22;42227;6.376;-10.782;2024-02-21T00:42:45;28.80;1.00
56322;DHT22;42227;6.376;-10.782;2024-02-21T00:45:13;28.70;1.00
56322;DHT22;42227;6.376;-10.782;2024-02-21T00:47:41;28.60;1.00
56322;DHT22;42227;6.376;-10.782;2024-02-21T00:50:10;28.50;99.90
56322;DHT22;42227;6.376;-10.782;2024-02-21T00:52:39;28.50;1.00
56322;DHT22;42227;6.376;-10.782;2024-02-21T00:55:07;28.60;1.00
56322;DHT22;42227;6.376;-10.782;2024-02-21T00:57:36;28.70;1.00
56322;DHT22;42227;6.376;-10.782;2024-02-21T01:00:05;28.80;1.00
56322;DHT22;42227;6.376;-10.782;2024-02-21T01:02:33;28.90;1.00
56322;DHT22;42227;6.376;-10.782;2024-02-21T01:05:02;28.90;1.00
56322;DHT22;42227;6.376;-10.782;2024-02-21T01:07:31;28.90;1.00
56322;DHT22;42227;6.376;-10.782;2024-02-21T01:09:59;28.90;1.00
56322;DHT22;42227;6.376;-10.782;2024-02-21T01:12:28;28.70;1.00
56322;DHT22;42227;6.376;-10.782;2024-02-21T01:14:56;28.60;1.00
56322;DHT22;42227;6.376;-10.782;2024-02-21T01:17:24;28.60;1.00
56322;DHT22;42227;6.376;-10.782;2024-02-21T01:19:53;28.60;1.00
56322;DHT22;42227;6.376;-10.782;2024-02-21T01:22:21;28.70;1.00
56322;DHT22;42227;6.376;-10.782;2024-02-21T01:24:49;28.80;1.00
56322;DHT22;42227;6.376;-10.782;2024-02-21T01:27:18;28.70;1.00
56322;DHT22;42227;6.376;-10.782;2024-02-21T01:29:46;28.80;1.00
56322;DHT22;42227;6.376;-10.782;2024-02-21T01:32:15;28.70;1.00
56322;DHT22;42227;6.376;-10.782;2024-02-21T01:34:43;28.80;1.00
56322;DHT22;42227;6.376;-10.782;2024-02-21T01:37:12;28.70;1.00
56322;DHT22;42227;6.376;-10.782;2024-02-21T01:39:40;28.60;1.00
56322;DHT22;42227;6.376;-10.782;2024-02-21T01:42:09;28.50;1.00
56322;DHT22;42227;6.376;-10.782;2024-02-21T01:44:37;28.60;15.60
56322;DHT22;42227;6.376;-10.782;2024-02-21T01:47:05;28.70;7.20
56322;DHT22;42227;6.376;-10.782;2024-02-21T01:49:34;28.90;1.00
56322;DHT22;42227;6.376;-10.782;2024-02-21T01:52:03;28.80;1.00
56322;DHT22;42227;6.376;-10.782;2024-02-21T01:54:32;28.90;1.00
56322;DHT22;42227;6.376;-10.782;2024-02-21T01:57:01;28.90;1.00
56322;DHT22;42227;6.376;-10.782;2024-02-21T01:59:30;28.80;1.00
56322;DHT22;42227;6.376;-10.782;2024-02-21T02:01:58;28.70;1.00
56322;DHT22;42227;6.376;-10.782;2024-02-21T02:04:28;28.60;1.00
56322;DHT22;42227;6.376;-10.782;2024-02-21T02:06:58;28.50;15.90
56322;DHT22;42227;6.376;-10.782;2024-02-21T02:09:28;28.50;46.90
56322;DHT22;42227;6.376;-10.782;2024-02-21T02:11:56;28.50;52.90
56322;DHT22;42227;6.376;-10.782;2024-02-21T02:14:25;28.70;29.10
56322;DHT22;42227;6.376;-10.782;2024-02-21T02:16:53;28.70;5.20
56322;DHT22;42227;6.376;-10.782;2024-02-21T02:19:25;28.80;1.00
56322;DHT22;42227;6.376;-10.782;2024-02-21T02:21:59;28.90;1.00
56322;DHT22;42227;6.376;-10.782;2024-02-21T02:24:29;28.70;1.00
56322;DHT22;42227;6.376;-10.782;2024-02-21T02:26:58;28.70;1.00
56322;DHT22;42227;6.376;-10.782;2024-02-21T02:29:26;28.60;1.00
56322;DHT22;42227;6.376;-10.782;2024-02-21T02:31:54;28.50;18.70
56322;DHT22;42227;6.376;-10.782;2024-02-21T02:34:23;28.50;51.00
56322;DHT22;42227;6.376;-10.782;2024-02-21T02:36:51;28.60;64.70
56322;DHT22;42227;6.376;-10.782;2024-02-21T02:39:20;28.80;44.90
56322;DHT22;42227;6.376;-10.782;2024-02-21T02:41:48;28.90;1.00
56322;DHT22;42227;6.376;-10.782;2024-02-21T02:44:16;29.00;1.00
56322;DHT22;42227;6.376;-10.782;2024-02-21T02:46:45;29.10;1.00
56322;DHT22;42227;6.376;-10.782;2024-02-21T02:49:13;29.00;1.00
56322;DHT22;42227;6.376;-10.782;2024-02-21T02:51:44;28.80;1.00
56322;DHT22;42227;6.376;-10.782;2024-02-21T02:54:13;28.70;1.00
56322;DHT22;42227;6.376;-10.782;2024-02-21T02:56:41;28.60;40.50
56322;DHT22;42227;6.376;-10.782;2024-02-21T02:59:09;28.60;83.80
56322;DHT22;42227;6.376;-10.782;2024-02-21T03:01:38;28.60;99.90
56322;DHT22;42227;6.376;-10.782;2024-02-21T03:04:06;28.80;93.20
56322;DHT22;42227;6.376;-10.782;2024-02-21T03:06:35;29.00;37.30
56322;DHT22;42227;6.376;-10.782;2024-02-21T03:09:04;29.00;1.00
56322;DHT22;42227;6.376;-10.782;2024-02-21T03:11:32;29.00;1.00
56322;DHT22;42227;6.376;-10.782;2024-02-21T03:14:01;29.00;1.00
56322;DHT22;42227;6.376;-10.782;2024-02-21T03:16:29;29.00;1.00
56322;DHT22;42227;6.376;-10.782;2024-02-21T03:18:58;28.80;1.00
56322;DHT22;42227;6.376;-10.782;2024-02-21T03:21:26;28.60;52.60
56322;DHT22;42227;6.376;-10.782;2024-02-21T03:23:54;28.50;94.30
56322;DHT22;42227;6.376;-10.782;2024-02-21T03:26:23;28.50;99.90
56322;DHT22;42227;6.376;-10.782;2024-02-21T03:28:51;28.60;99.90
56322;DHT22;42227;6.376;-10.782;2024-02-21T03:31:20;28.70;99.90
56322;DHT22;42227;6.376;-10.782;2024-02-21T03:33:48;28.80;88.50
56322;DHT22;42227;6.376;-10.782;2024-02-21T03:36:16;28.80;45.00
56322;DHT22;42227;6.376;-10.782;2024-02-21T03:38:45;28.90;22.30
56322;DHT22;42227;6.376;-10.782;2024-02-21T03:41:13;28.90;1.20
56322;DHT22;42227;6.376;-10.782;2024-02-21T03:43:41;28.70;14.50
56322;DHT22;42227;6.376;-10.782;2024-02-21T03:46:10;28.60;55.00
56322;DHT22;42227;6.376;-10.782;2024-02-21T03:48:38;28.50;99.90
56322;DHT22;42227;6.376;-10.782;2024-02-21T03:51:07;28.40;99.90
56322;DHT22;42227;6.376;-10.782;2024-02-21T03:53:35;28.50;99.90
56322;DHT22;42227;6.376;-10.782;2024-02-21T03:56:04;28.60;99.90
56322;DHT22;42227;6.376;-10.782;2024-02-21T03:58:33;28.70;99.90
56322;DHT22;42227;6.376;-10.782;2024-02-21T04:01:02;28.80;82.70
56322;DHT22;42227;6.376;-10.782;2024-02-21T04:03:31;28.80;52.90
56322;DHT22;42227;6.376;-10.782;2024-02-21T04:05:59;28.70;63.80
56322;DHT22;42227;6.376;-10.782;2024-02-21T04:08:28;28.50;94.20
56322;DHT22;42227;6.376;-10.782;2024-02-21T04:10:56;28.40;99.90
56322;DHT22;42227;6.376;-10.782;2024-02-21T04:13:25;28.30;99.90
56322;DHT22;42227;6.376;-10.782;2024-02-21T04:15:53;28.20;99.90
56322;DHT22;42227;6.376;-10.782;2024-02-21T04:18:22;28.20;99.90
56322;DHT22;42227;6.376;-10.782;2024-02-21T04:20:51;28.30;99.90
56322;DHT22;42227;6.376;-10.782;2024-02-21T04:23:20;28.40;99.90
56322;DHT22;42227;6.376;-10.782;2024-02-21T04:25:48;28.40;99.90
56322;DHT22;42227;6.376;-10.782;2024-02-21T04:28:16;28.50;99.90
56322;DHT22;42227;6.376;-10.782;2024-02-21T04:30:45;28.40;99.90
56322;DHT22;42227;6.376;-10.782;2024-02-21T04:33:13;28.20;99.90
56322;DHT22;42227;6.376;-10.782;2024-02-21T04:35:42;28.10;99.90
56322;DHT22;42227;6.376;-10.782;2024-02-21T04:38:10;28.10;99.90
56322;DHT22;42227;6.376;-10.782;2024-02-21T04:40:38;28.00;99.90
56322;DHT22;42227;6.376;-10.782;2024-02-21T04:43:07;28.10;99.90
56322;DHT22;42227;6.376;-10.782;2024-02-21T04:45:35;28.00;99.90
56322;DHT22;42227;6.376;-10.782;2024-02-21T04:48:04;28.10;99.90
56322;DHT22;42227;6.376;-10.782;2024-02-21T04:50:33;28.10;99.90
56322;DHT22;42227;6.376;-10.782;2024-02-21T04:53:02;28.10;99.90
56322;DHT22;42227;6.376;-10.782;2024-02-21T04:55:30;28.00;99.90
56322;DHT22;42227;6.376;-10.782;2024-02-21T04:57:58;27.90;99.90
56322;DHT22;42227;6.376;-10.782;2024-02-21T05:00:27;27.80;99.90
56322;DHT22;42227;6.376;-10.782;2024-02-21T05:02:55;27.80;99.90
56322;DHT22;42227;6.376;-10.782;2024-02-21T05:05:23;27.70;99.90
56322;DHT22;42227;6.376;-10.782;2024-02-21T05:07:52;27.70;99.90
56322;DHT22;42227;6.376;-10.782;2024-02-21T05:10:20;27.70;99.90
56322;DHT22;42227;6.376;-10.782;2024-02-21T05:12:49;27.70;99.90
56322;DHT22;42227;6.376;-10.782;2024-02-21T05:15:17;27.50;99.90
56322;DHT22;42227;6.376;-10.782;2024-02-21T05:17:46;27.40;99.90
56322;DHT22;42227;6.376;-10.782;2024-02-21T05:20:14;27.30;1.00
56322;DHT22;42227;6.376;-10.782;2024-02-21T05:22:43;27.40;1.00
56322;DHT22;42227;6.376;-10.782;2024-02-21T05:25:11;27.40;1.00
56322;DHT22;42227;6.376;-10.782;2024-02-21T05:27:40;27.40;1.00
56322;DHT22;42227;6.376;-10.782;2024-02-21T05:30:08;27.30;1.00
56322;DHT22;42227;6.376;-10.782;2024-02-21T05:32:37;27.40;1.00
56322;DHT22;42227;6.376;-10.782;2024-02-21T05:35:05;27.50;1.00
56322;DHT22;42227;6.376;-10.782;2024-02-21T05:37:34;27.60;1.00
56322;DHT22;42227;6.376;-10.782;2024-02-21T05:40:02;27.80;1.00
56322;DHT22;42227;6.376;-10.782;2024-02-21T05:42:31;27.70;99.90
56322;DHT22;42227;6.376;-10.782;2024-02-21T05:44:59;27.60;99.90
56322;DHT22;42227;6.376;-10.782;2024-02-21T05:47:28;27.60;99.90
56322;DHT22;42227;6.376;-10.782;2024-02-21T05:49:56;27.50;99.90
56322;DHT22;42227;6.376;-10.782;2024-02-21T05:52:24;27.60;1.00
56322;DHT22;42227;6.376;-10.782;2024-02-21T05:54:53;27.60;1.00
56322;DHT22;42227;6.376;-10.782;2024-02-21T05:57:21;27.50;1.00
56322;DHT22;42227;6.376;-10.782;2024-02-21T05:59:49;27.50;1.00
56322;DHT22;42227;6.376;-10.782;2024-02-21T06:02:18;27.60;99.90
56322;DHT22;42227;6.376;-10.782;2024-02-21T06:04:46;27.60;99.90
56322;DHT22;42227;6.376;-10.782;2024-02-21T06:07:15;27.50;99.90
56322;DHT22;42227;6.376;-10.782;2024-02-21T06:09:43;27.50;99.90
56322;DHT22;42227;6.376;-10.782;2024-02-21T06:12:12;27.40;1.00
56322;DHT22;42227;6.376;-10.782;2024-02-21T06:14:40;27.50;1.00
56322;DHT22;42227;6.376;-10.782;2024-02-21T06:17:08;27.70;99.90
56322;DHT22;42227;6.376;-10.782;2024-02-21T06:19:36;27.70;99.90
56322;DHT22;42227;6.376;-10.782;2024-02-21T06:22:08;27.60;99.90
56322;DHT22;42227;6.376;-10.782;2024-02-21T06:24:36;27.50;1.00
56322;DHT22;42227;6.376;-10.782;2024-02-21T06:27:07;27.50;1.00
56322;DHT22;42227;6.376;-10.782;2024-02-21T06:29:37;27.50;1.00
56322;DHT22;42227;6.376;-10.782;2024-02-21T06:32:06;27.30;1.00
56322;DHT22;42227;6.376;-10.782;2024-02-21T06:34:34;27.40;1.00
56322;DHT22;42227;6.376;-10.782;2024-02-21T06:37:03;27.30;1.00
56322;DHT22;42227;6.376;-10.782;2024-02-21T06:39:32;27.50;1.00
56322;DHT22;42227;6.376;-10.782;2024-02-21T06:44:39;27.60;1.00
56322;DHT22;42227;6.376;-10.782;2024-02-21T06:47:08;27.60;1.00
56322;DHT22;42227;6.376;-10.782;2024-02-21T06:49:36;27.50;1.00
56322;DHT22;42227;6.376;-10.782;2024-02-21T06:52:05;27.50;1.00
56322;DHT22;42227;6.376;-10.782;2024-02-21T06:54:33;27.50;1.00
56322;DHT22;42227;6.376;-10.782;2024-02-21T06:57:02;27.50;1.00
56322;DHT22;42227;6.376;-10.782;2024-02-21T06:59:30;27.70;1.00
56322;DHT22;42227;6.376;-10.782;2024-02-21T07:01:59;27.60;1.00
56322;DHT22;42227;6.376;-10.782;2024-02-21T07:04:27;27.60;1.00
56322;DHT22;42227;6.376;-10.782;2024-02-21T07:06:56;27.50;1.00
56322;DHT22;42227;6.376;-10.782;2024-02-21T07:09:24;27.50;1.00
56322;DHT22;42227;6.376;-10.782;2024-02-21T07:11:52;27.40;1.00
56322;DHT22;42227;6.376;-10.782;2024-02-21T07:14:21;27.50;1.00
56322;DHT22;42227;6.376;-10.782;2024-02-21T07:16:49;27.40;14.30
56322;DHT22;42227;6.376;-10.782;2024-02-21T07:19:17;27.50;71.70
56322;DHT22;42227;6.376;-10.782;2024-02-21T07:21:46;27.50;17.00
56322;DHT22;42227;6.376;-10.782;2024-02-21T07:24:14;27.60;57.80
56322;DHT22;42227;6.376;-10.782;2024-02-21T07:26:43;27.70;5.90
56322;DHT22;42227;6.376;-10.782;2024-02-21T07:29:12;27.80;1.00
56322;DHT22;42227;6.376;-10.782;2024-02-21T07:31:41;27.90;1.00
56322;DHT22;42227;6.376;-10.782;2024-02-21T07:34:10;27.80;1.00
56322;DHT22;42227;6.376;-10.782;2024-02-21T07:36:38;27.80;1.00
56322;DHT22;42227;6.376;-10.782;2024-02-21T07:39:07;28.00;1.00
56322;DHT22;42227;6.376;-10.782;2024-02-21T07:41:35;28.00;99.90
56322;DHT22;42227;6.376;-10.782;2024-02-21T07:44:03;28.20;99.90
56322;DHT22;42227;6.376;-10.782;2024-02-21T07:46:32;28.40;99.90
56322;DHT22;42227;6.376;-10.782;2024-02-21T07:49:01;28.60;99.90
56322;DHT22;42227;6.376;-10.782;2024-02-21T07:51:29;28.80;32.60
56322;DHT22;42227;6.376;-10.782;2024-02-21T07:53:57;29.00;1.00
56322;DHT22;42227;6.376;-10.782;2024-02-21T07:56:27;29.20;1.00
56322;DHT22;42227;6.376;-10.782;2024-02-21T07:58:56;29.30;1.00
56322;DHT22;42227;6.376;-10.782;2024-02-21T08:01:24;29.50;1.00
56322;DHT22;42227;6.376;-10.782;2024-02-21T08:03:53;29.60;1.00
56322;DHT22;42227;6.376;-10.782;2024-02-21T08:06:21;29.90;99.90
56322;DHT22;42227;6.376;-10.782;2024-02-21T08:08:50;30.10;99.90
56322;DHT22;42227;6.376;-10.782;2024-02-21T08:11:18;30.50;99.90
56322;DHT22;42227;6.376;-10.782;2024-02-21T08:13:47;30.60;99.90
56322;DHT22;42227;6.376;-10.782;2024-02-21T08:16:15;30.80;99.90
56322;DHT22;42227;6.376;-10.782;2024-02-21T08:18:47;31.00;99.90
56322;DHT22;42227;6.376;-10.782;2024-02-21T08:21:15;31.00;99.90
56322;DHT22;42227;6.376;-10.782;2024-02-21T08:23:43;31.00;99.90
56322;DHT22;42227;6.376;-10.782;2024-02-21T08:26:12;31.20;99.90
56322;DHT22;42227;6.376;-10.782;2024-02-21T08:28:40;31.40;99.90
56322;DHT22;42227;6.376;-10.782;2024-02-21T08:31:09;31.50;99.90
56322;DHT22;42227;6.376;-10.782;2024-02-21T08:33:37;31.60;99.90
56322;DHT22;42227;6.376;-10.782;2024-02-21T08:36:06;32.00;99.90
56322;DHT22;42227;6.376;-10.782;2024-02-21T08:38:34;32.20;99.90
56322;DHT22;42227;6.376;-10.782;2024-02-21T08:41:05;32.40;99.90
56322;DHT22;42227;6.376;-10.782;2024-02-21T08:43:34;32.60;95.60
56322;DHT22;42227;6.376;-10.782;2024-02-21T08:46:02;32.80;83.80
56322;DHT22;42227;6.376;-10.782;2024-02-21T08:48:30;32.70;79.90
56322;DHT22;42227;6.376;-10.782;2024-02-21T08:50:59;32.80;81.60
56322;DHT22;42227;6.376;-10.782;2024-02-21T08:53:28;33.00;58.70
56322;DHT22;42227;6.376;-10.782;2024-02-21T08:55:56;33.00;52.50
56322;DHT22;42227;6.376;-10.782;2024-02-21T08:58:24;33.30;28.50
56322;DHT22;42227;6.376;-10.782;2024-02-21T09:00:52;33.50;20.50
56322;DHT22;42227;6.376;-10.782;2024-02-21T09:03:21;33.60;16.00
56322;DHT22;42227;6.376;-10.782;2024-02-21T09:05:49;33.80;1.00
56322;DHT22;42227;6.376;-10.782;2024-02-21T09:08:18;34.00;1.00
56322;DHT22;42227;6.376;-10.782;2024-02-21T09:10:46;33.90;1.00
56322;DHT22;42227;6.376;-10.782;2024-02-21T09:13:15;33.70;1.00
56322;DHT22;42227;6.376;-10.782;2024-02-21T09:15:43;33.60;1.00
56322;DHT22;42227;6.376;-10.782;2024-02-21T09:18:11;32.50;28.40
56322;DHT22;42227;6.376;-10.782;2024-02-21T09:20:40;31.80;75.70
56322;DHT22;42227;6.376;-10.782;2024-02-21T09:23:08;32.30;71.80
56322;DHT22;42227;6.376;-10.782;2024-02-21T09:25:36;32.20;61.00
56322;DHT22;42227;6.376;-10.782;2024-02-21T09:28:05;32.20;77.60
56322;DHT22;42227;6.376;-10.782;2024-02-21T09:30:34;32.40;83.60
56322;DHT22;42227;6.376;-10.782;2024-02-21T09:33:05;32.80;63.10
56322;DHT22;42227;6.376;-10.782;2024-02-21T09:35:33;33.00;33.30
56322;DHT22;42227;6.376;-10.782;2024-02-21T09:38:02;32.90;40.10
56322;DHT22;42227;6.376;-10.782;2024-02-21T09:40:30;33.00;19.50
56322;DHT22;42227;6.376;-10.782;2024-02-21T09:43:03;32.70;30.00
56322;DHT22;42227;6.376;-10.782;2024-02-21T09:45:32;32.80;20.60
56322;DHT22;42227;6.376;-10.782;2024-02-21T09:50:49;32.80;28.60
56322;DHT22;42227;6.376;-10.782;2024-02-21T09:53:18;32.90;12.30
56322;DHT22;42227;6.376;-10.782;2024-02-21T09:55:47;33.10;8.90
56322;DHT22;42227;6.376;-10.782;2024-02-21T09:58:16;33.00;1.00
56322;DHT22;42227;6.376;-10.782;2024-02-21T10:00:45;32.30;24.50
56322;DHT22;42227;6.376;-10.782;2024-02-21T10:03:13;32.40;34.10
56322;DHT22;42227;6.376;-10.782;2024-02-21T10:05:47;32.20;35.10
56322;DHT22;42227;6.376;-10.782;2024-02-21T10:08:16;32.50;24.90
56322;DHT22;42227;6.376;-10.782;2024-02-21T10:10:45;32.60;25.70
56322;DHT22;42227;6.376;-10.782;2024-02-21T10:13:30;32.70;5.50
56322;DHT22;42227;6.376;-10.782;2024-02-21T10:16:06;32.50;7.80
56322;DHT22;42227;6.376;-10.782;2024-02-21T10:18:35;32.40;7.50
56322;DHT22;42227;6.376;-10.782;2024-02-21T10:21:05;32.40;9.30
56322;DHT22;42227;6.376;-10.782;2024-02-21T10:23:50;32.40;9.80
56322;DHT22;42227;6.376;-10.782;2024-02-21T10:26:19;32.50;12.60
56322;DHT22;42227;6.376;-10.782;2024-02-21T10:28:48;32.40;9.60
56322;DHT22;42227;6.376;-10.782;2024-02-21T10:31:27;32.40;12.10
56322;DHT22;42227;6.376;-10.782;2024-02-21T10:34:00;32.20;16.70
56322;DHT22;42227;6.376;-10.782;2024-02-21T10:36:29;32.20;15.30
56322;DHT22;42227;6.376;-10.782;2024-02-21T10:38:58;32.00;4.80
56322;DHT22;42227;6.376;-10.782;2024-02-21T10:41:26;32.10;1.00
56322;DHT22;42227;6.376;-10.782;2024-02-21T10:43:55;31.90;1.00
56322;DHT22;42227;6.376;-10.782;2024-02-21T10:46:24;31.80;1.00
56322;DHT22;42227;6.376;-10.782;2024-02-21T10:49:16;31.80;3.70
56322;DHT22;42227;6.376;-10.782;2024-02-21T10:51:48;31.70;8.30
56322;DHT22;42227;6.376;-10.782;2024-02-21T10:57:15;31.70;16.40
56322;DHT22;42227;6.376;-10.782;2024-02-21T10:59:45;31.80;23.40
56322;DHT22;42227;6.376;-10.782;2024-02-21T11:02:15;31.80;23.00
56322;DHT22;42227;6.376;-10.782;2024-02-21T11:04:45;31.80;26.70
56322;DHT22;42227;6.376;-10.782;2024-02-21T11:07:14;31.60;31.20
56322;DHT22;42227;6.376;-10.782;2024-02-21T11:09:51;31.70;35.20
56322;DHT22;42227;6.376;-10.782;2024-02-21T11:12:21;32.00;20.40
56322;DHT22;42227;6.376;-10.782;2024-02-21T11:14:50;32.00;12.20
56322;DHT22;42227;6.376;-10.782;2024-02-21T11:17:20;32.20;7.90
56322;DHT22;42227;6.376;-10.782;2024-02-21T11:19:49;32.30;10.60
56322;DHT22;42227;6.376;-10.782;2024-02-21T11:22:19;32.40;15.70
56322;DHT22;42227;6.376;-10.782;2024-02-21T11:24:47;32.70;13.20
56322;DHT22;42227;6.376;-10.782;2024-02-21T11:27:20;32.70;1.00
56322;DHT22;42227;6.376;-10.782;2024-02-21T11:29:54;32.80;1.00
56322;DHT22;42227;6.376;-10.782;2024-02-21T11:32:22;32.80;1.00
56322;DHT22;42227;6.376;-10.782;2024-02-21T11:34:57;32.90;1.00
56322;DHT22;42227;6.376;-10.782;2024-02-21T11:37:27;33.00;1.00
56322;DHT22;42227;6.376;-10.782;2024-02-21T11:39:57;33.00;1.00
56322;DHT22;42227;6.376;-10.782;2024-02-21T11:42:26;33.10;1.00
56322;DHT22;42227;6.376;-10.782;2024-02-21T11:44:56;33.00;1.00
56322;DHT22;42227;6.376;-10.782;2024-02-21T11:47:25;33.10;1.00
56322;DHT22;42227;6.376;-10.782;2024-02-21T11:49:53;33.10;1.00
56322;DHT22;42227;6.376;-10.782;2024-02-21T11:52:23;33.10;1.00
56322;DHT22;42227;6.376;-10.782;2024-02-21T11:54:53;33.00;1.00
56322;DHT22;42227;6.376;-10.782;2024-02-21T11:57:22;33.00;1.00
56322;DHT22;42227;6.376;-10.782;2024-02-21T11:59:51;33.00;1.00
56322;DHT22;42227;6.376;-10.782;2024-02-21T12:02:26;33.20;1.00
56322;DHT22;42227;6.376;-10.782;2024-02-21T12:04:55;33.40;1.00
56322;DHT22;42227;6.376;-10.782;2024-02-21T12:07:23;33.50;1.00
56322;DHT22;42227;6.376;-10.782;2024-02-21T12:09:52;33.40;1.00
56322;DHT22;42227;6.376;-10.782;2024-02-21T12:12:20;33.50;1.00
56322;DHT22;42227;6.376;-10.782;2024-02-21T12:14:57;33.60;1.00
56322;DHT22;42227;6.376;-10.782;2024-02-21T12:17:26;33.60;1.00
56322;DHT22;42227;6.376;-10.782;2024-02-21T12:19:54;33.50;1.00
56322;DHT22;42227;6.376;-10.782;2024-02-21T12:22:24;33.40;1.00
56322;DHT22;42227;6.376;-10.782;2024-02-21T12:24:53;33.50;1.00
56322;DHT22;42227;6.376;-10.782;2024-02-21T12:27:21;33.40;1.00
56322;DHT22;42227;6.376;-10.782;2024-02-21T12:29:50;33.50;1.00
56322;DHT22;42227;6.376;-10.782;2024-02-21T12:32:18;33.30;1.00
56322;DHT22;42227;6.376;-10.782;2024-02-21T12:34:46;33.20;1.00
56322;DHT22;42227;6.376;-10.782;2024-02-21T12:37:23;33.20;1.00
56322;DHT22;42227;6.376;-10.782;2024-02-21T12:39:52;33.20;1.00
56322;DHT22;42227;6.376;-10.782;2024-02-21T12:42:20;33.30;1.00
56322;DHT22;42227;6.376;-10.782;2024-02-21T12:44:49;33.30;1.00
56322;DHT22;42227;6.376;-10.782;2024-02-21T12:47:18;33.30;1.00
56322;DHT22;42227;6.376;-10.782;2024-02-21T12:49:46;33.40;1.00
56322;DHT22;42227;6.376;-10.782;2024-02-21T12:52:15;33.40;1.00
56322;DHT22;42227;6.376;-10.782;2024-02-21T12:54:43;33.50;1.00
56322;DHT22;42227;6.376;-10.782;2024-02-21T12:57:12;33.50;1.00
56322;DHT22;42227;6.376;-10.782;2024-02-21T12:59:40;33.60;1.00
56322;DHT22;42227;6.376;-10.782;2024-02-21T13:02:08;33.60;1.00
56322;DHT22;42227;6.376;-10.782;2024-02-21T13:04:37;33.50;1.00
56322;DHT22;42227;6.376;-10.782;2024-02-21T13:07:05;33.50;1.00
56322;DHT22;42227;6.376;-10.782;2024-02-21T13:09:36;33.40;1.00
56322;DHT22;42227;6.376;-10.782;2024-02-21T13:12:04;33.50;1.00
56322;DHT22;42227;6.376;-10.782;2024-02-21T13:14:33;33.50;1.00
56322;DHT22;42227;6.376;-10.782;2024-02-21T13:17:01;33.50;1.00
56322;DHT22;42227;6.376;-10.782;2024-02-21T13:19:30;33.40;1.00
56322;DHT22;42227;6.376;-10.782;2024-02-21T13:21:58;33.50;1.00
56322;DHT22;42227;6.376;-10.782;2024-02-21T13:24:27;33.40;1.00
56322;DHT22;42227;6.376;-10.782;2024-02-21T13:26:55;33.40;1.00
56322;DHT22;42227;6.376;-10.782;2024-02-21T13:29:23;33.50;1.00
56322;DHT22;42227;6.376;-10.782;2024-02-21T13:31:51;33.60;1.00
56322;DHT22;42227;6.376;-10.782;2024-02-21T13:34:20;33.30;1.00
56322;DHT22;42227;6.376;-10.782;2024-02-21T13:36:48;33.00;1.00
56322;DHT22;42227;6.376;-10.782;2024-02-21T13:39:17;33.00;1.00
56322;DHT22;42227;6.376;-10.782;2024-02-21T13:41:45;33.00;1.00
56322;DHT22;42227;6.376;-10.782;2024-02-21T13:44:14;32.80;1.00
56322;DHT22;42227;6.376;-10.782;2024-02-21T13:46:43;32.80;1.00
56322;DHT22;42227;6.376;-10.782;2024-02-21T13:49:11;32.90;1.00
56322;DHT22;42227;6.376;-10.782;2024-02-21T13:51:40;33.10;1.00
56322;DHT22;42227;6.376;-10.782;2024-02-21T13:54:08;33.20;1.00
56322;DHT22;42227;6.376;-10.782;2024-02-21T13:56:37;33.30;1.00
56322;DHT22;42227;6.376;-10.782;2024-02-21T13:59:06;33.30;1.00
56322;DHT22;42227;6.376;-10.782;2024-02-21T14:01:34;33.20;1.00
56322;DHT22;42227;6.376;-10.782;2024-02-21T14:04:03;33.10;1.00
56322;DHT22;42227;6.376;-10.782;2024-02-21T14:06:31;33.00;1.00
56322;DHT22;42227;6.376;-10.782;2024-02-21T14:09:00;33.10;1.00
56322;DHT22;42227;6.376;-10.782;2024-02-21T14:11:28;33.00;1.00
56322;DHT22;42227;6.376;-10.782;2024-02-21T14:13:57;32.90;1.00
56322;DHT22;42227;6.376;-10.782;2024-02-21T14:16:25;32.70;1.00
56322;DHT22;42227;6.376;-10.782;2024-02-21T14:18:54;32.60;1.00
56322;DHT22;42227;6.376;-10.782;2024-02-21T14:21:22;32.70;1.00
56322;DHT22;42227;6.376;-10.782;2024-02-21T14:23:51;32.70;1.00
56322;DHT22;42227;6.376;-10.782;2024-02-21T14:26:19;32.70;1.00
56322;DHT22;42227;6.376;-10.782;2024-02-21T14:28:48;32.80;1.00
56322;DHT22;42227;6.376;-10.782;2024-02-21T14:31:16;32.70;1.00
56322;DHT22;42227;6.376;-10.782;2024-02-21T14:33:45;32.80;1.00
56322;DHT22;42227;6.376;-10.782;2024-02-21T14:36:13;32.90;1.00
56322;DHT22;42227;6.376;-10.782;2024-02-21T14:38:42;32.90;1.00
56322;DHT22;42227;6.376;-10.782;2024-02-21T14:41:14;32.60;1.00
56322;DHT22;42227;6.376;-10.782;2024-02-21T14:43:43;32.60;1.00
56322;DHT22;42227;6.376;-10.782;2024-02-21T14:46:12;32.60;1.00
56322;DHT22;42227;6.376;-10.782;2024-02-21T14:48:40;32.70;1.00
56322;DHT22;42227;6.376;-10.782;2024-02-21T14:51:09;32.80;1.00
56322;DHT22;42227;6.376;-10.782;2024-02-21T14:53:37;32.80;1.00
56322;DHT22;42227;6.376;-10.782;2024-02-21T14:56:12;32.70;3.70
56322;DHT22;42227;6.376;-10.782;2024-02-21T14:58:41;32.70;1.00
56322;DHT22;42227;6.376;-10.782;2024-02-21T15:01:10;32.60;1.00
56322;DHT22;42227;6.376;-10.782;2024-02-21T15:03:38;32.70;5.60
56322;DHT22;42227;6.376;-10.782;2024-02-21T15:06:07;32.90;1.00
56322;DHT22;42227;6.376;-10.782;2024-02-21T15:08:35;32.80;1.00
56322;DHT22;42227;6.376;-10.782;2024-02-21T15:11:04;32.80;2.90
56322;DHT22;42227;6.376;-10.782;2024-02-21T15:13:32;32.70;1.00
56322;DHT22;42227;6.376;-10.782;2024-02-21T15:16:00;32.60;3.80
56322;DHT22;42227;6.376;-10.782;2024-02-21T15:18:29;32.70;3.80
56322;DHT22;42227;6.376;-10.782;2024-02-21T15:20:57;32.70;1.00
56322;DHT22;42227;6.376;-10.782;2024-02-21T15:23:26;32.70;4.60
56322;DHT22;42227;6.376;-10.782;2024-02-21T15:25:54;32.60;1.00
56322;DHT22;42227;6.376;-10.782;2024-02-21T15:28:23;32.60;3.00
56322;DHT22;42227;6.376;-10.782;2024-02-21T15:30:51;32.70;3.40
56322;DHT22;42227;6.376;-10.782;2024-02-21T15:33:19;32.50;1.20
56322;DHT22;42227;6.376;-10.782;2024-02-21T15:35:48;32.40;9.90
56322;DHT22;42227;6.376;-10.782;2024-02-21T15:38:17;32.50;12.60
56322;DHT22;42227;6.376;-10.782;2024-02-21T15:40:45;32.40;14.90
56322;DHT22;42227;6.376;-10.782;2024-02-21T15:43:14;32.50;16.40